createdAt,value
2022-09-28T06:31:32.975Z,9.64
2022-09-28T06:34:35.227Z,9.63
2022-09-28T06:37:36.867Z,9.65
2022-09-28T06:40:39.461Z,9.69
2022-09-28T06:43:41.350Z,9.71
2022-09-28T06:47:01.741Z,9.70
2022-09-28T06:50:16.303Z,9.80
2022-09-28T06:53:37.282Z,9.75
2022-09-28T06:56:54.399Z,9.73
2022-09-28T06:59:56.142Z,9.77
2022-09-28T07:02:57.847Z,9.77
2022-09-28T07:06:13.928Z,9.81
2022-09-28T07:09:41.442Z,9.78
2022-09-28T07:12:56.959Z,9.82
2022-09-28T07:16:21.680Z,9.82
2022-09-28T07:19:27.881Z,9.80
2022-09-28T07:22:40.983Z,9.80
2022-09-28T07:25:48.108Z,9.91
2022-09-28T07:29:06.446Z,9.86
2022-09-28T07:32:27.760Z,9.91
2022-09-28T07:35:55.905Z,9.92
2022-09-28T07:39:02.364Z,9.95
2022-09-28T07:42:04.242Z,10.04
2022-09-28T07:45:07.032Z,10.03
2022-09-28T07:48:08.823Z,10.10
2022-09-28T07:51:33.665Z,10.24
2022-09-28T07:54:54.960Z,10.31
2022-09-28T07:58:22.820Z,10.42
2022-09-28T08:01:44.820Z,10.52
2022-09-28T08:04:50.044Z,10.65
2022-09-28T08:07:53.003Z,10.61
2022-09-28T08:10:56.836Z,10.74
2022-09-28T08:14:17.285Z,10.83
2022-09-28T08:17:49.287Z,10.88
2022-09-28T08:21:12.514Z,11.06
2022-09-28T08:24:16.143Z,11.07
2022-09-28T08:27:18.539Z,11.08
2022-09-28T08:30:20.302Z,11.09
2022-09-28T08:33:42.439Z,11.05
2022-09-28T08:37:22.540Z,11.13
2022-09-28T08:40:53.121Z,11.11
2022-09-28T08:44:28.740Z,11.17
2022-09-28T08:48:15.000Z,11.15
2022-09-28T08:51:57.265Z,11.00
2022-09-28T08:55:24.218Z,11.08
2022-09-28T08:58:31.687Z,11.25
2022-09-28T09:01:41.746Z,11.36
2022-09-28T09:04:47.978Z,11.34
2022-09-28T09:08:11.426Z,11.22
2022-09-28T09:11:34.984Z,11.18
2022-09-28T09:15:02.822Z,11.16
2022-09-28T09:18:27.999Z,11.27
2022-09-28T09:22:01.701Z,11.17
2022-09-28T09:25:23.874Z,11.30
2022-09-28T09:28:48.443Z,11.25
2022-09-28T09:32:09.796Z,11.51
2022-09-28T09:35:42.726Z,11.50
2022-09-28T09:39:24.788Z,11.54
2022-09-28T09:43:11.037Z,11.48
2022-09-28T09:46:37.740Z,11.38
2022-09-28T09:50:09.037Z,11.50
2022-09-28T09:53:17.018Z,11.51
2022-09-28T09:56:48.845Z,11.55
2022-09-28T10:00:15.403Z,11.60
2022-09-28T10:38:42.159Z,11.46
2022-09-28T10:42:25.320Z,12.02
2022-09-28T10:50:25.936Z,11.80
2022-09-28T10:58:47.481Z,11.90
2022-09-28T11:02:35.715Z,12.05
2022-09-28T11:06:35.914Z,12.24
2022-09-28T11:10:11.815Z,12.09
2022-09-28T11:21:55.352Z,12.71
2022-09-28T11:25:23.429Z,12.33
2022-09-28T11:28:36.772Z,12.38
2022-09-28T11:31:51.095Z,12.85
2022-09-28T11:35:04.214Z,12.92
2022-09-28T11:38:13.248Z,13.01
2022-09-28T11:42:03.057Z,12.34
2022-09-28T11:45:51.447Z,12.88
2022-09-28T11:49:04.949Z,12.77
2022-09-28T11:52:32.938Z,12.91
2022-09-28T11:55:48.966Z,12.97
2022-09-28T11:59:15.496Z,13.09
2022-09-28T12:02:51.646Z,12.91
2022-09-28T12:06:09.218Z,12.38
2022-09-28T12:09:22.852Z,12.27
2022-09-28T12:13:04.058Z,12.28
2022-09-28T12:17:04.276Z,12.48
2022-09-28T12:20:29.433Z,12.34
2022-09-28T12:23:49.586Z,12.25
2022-09-28T12:27:20.370Z,12.54
2022-09-28T12:30:31.802Z,12.23
2022-09-28T12:33:41.161Z,12.32
2022-09-28T12:36:56.026Z,12.71
2022-09-28T12:40:00.183Z,12.93
2022-09-28T12:43:54.863Z,13.05
2022-09-28T12:47:06.673Z,13.10
2022-09-28T12:50:45.575Z,13.22
2022-09-28T12:53:55.877Z,13.28
2022-09-28T12:57:02.198Z,13.11
2022-09-28T13:00:13.602Z,12.74
2022-09-28T13:03:47.754Z,12.79
2022-09-28T13:06:55.789Z,13.11
2022-09-28T13:10:22.727Z,13.41
2022-09-28T13:13:48.077Z,12.99
2022-09-28T13:17:12.453Z,13.30
2022-09-28T13:20:32.327Z,13.29
2022-09-28T13:23:40.574Z,13.08
2022-09-28T13:26:45.795Z,13.13
2022-09-28T13:29:49.887Z,13.24
2022-09-28T13:32:54.233Z,12.98
2022-09-28T13:35:56.982Z,13.04
2022-09-28T13:39:00.338Z,12.85
2022-09-28T13:42:02.695Z,12.77
2022-09-28T13:45:13.732Z,12.55
2022-09-28T13:48:34.631Z,12.78
2022-09-28T13:52:10.243Z,12.88
2022-09-28T13:55:11.890Z,12.88
2022-09-28T13:58:24.467Z,12.80
2022-09-28T14:01:42.727Z,12.71
2022-09-28T14:05:07.087Z,12.72
2022-09-28T14:08:08.739Z,12.70
2022-09-28T14:11:34.393Z,12.59
2022-09-28T14:14:51.141Z,12.61
2022-09-28T14:18:02.131Z,12.54
2022-09-28T14:21:31.380Z,12.46
2022-09-28T14:25:01.064Z,12.54
2022-09-28T14:28:23.289Z,12.52
2022-09-28T14:31:28.577Z,12.32
2022-09-28T14:34:43.803Z,12.10
2022-09-28T14:38:08.654Z,12.10
2022-09-28T14:41:29.572Z,12.14
2022-09-28T14:45:06.288Z,12.19
2022-09-28T14:48:15.718Z,12.13
2022-09-28T14:51:26.646Z,12.14
2022-09-28T14:54:38.415Z,12.27
2022-09-28T14:57:41.872Z,12.30
2022-09-28T15:00:45.897Z,12.20
2022-09-28T15:03:53.494Z,12.09
2022-09-28T15:06:55.323Z,12.11
2022-09-28T15:09:58.614Z,12.03
2022-09-28T15:13:03.421Z,12.06
2022-09-28T15:16:10.493Z,11.97
2022-09-28T15:19:25.195Z,11.99
2022-09-28T15:22:27.410Z,12.04
2022-09-28T15:25:31.781Z,11.91
2022-09-28T15:28:35.375Z,11.83
2022-09-28T15:31:36.973Z,11.68
2022-09-28T15:34:54.791Z,11.72
2022-09-28T15:37:56.520Z,11.84
2022-09-28T15:40:58.682Z,11.77
2022-09-28T15:44:12.761Z,11.78
2022-09-28T15:47:25.251Z,11.65
2022-09-28T15:50:30.034Z,11.72
2022-09-28T15:53:33.286Z,11.69
2022-09-28T15:57:01.921Z,11.54
2022-09-28T16:00:28.888Z,11.48
2022-09-28T16:03:31.246Z,11.63
2022-09-28T16:06:32.860Z,11.54
2022-09-28T16:09:54.948Z,11.48
2022-09-28T16:13:08.283Z,11.56
2022-09-28T16:16:15.590Z,11.74
2022-09-28T16:19:27.914Z,11.59
2022-09-28T16:22:34.301Z,11.60
2022-09-28T16:25:39.228Z,11.54
2022-09-28T16:28:41.476Z,11.49
2022-09-28T16:31:51.394Z,11.47
2022-09-28T16:35:11.444Z,11.33
2022-09-28T16:38:14.991Z,11.17
2022-09-28T16:41:27.397Z,11.01
2022-09-28T16:44:30.024Z,10.84
2022-09-28T16:47:34.917Z,10.84
2022-09-28T16:50:36.470Z,10.79
2022-09-28T16:53:56.796Z,10.78
2022-09-28T16:56:58.914Z,10.64
2022-09-28T17:00:01.475Z,10.61
2022-09-28T17:03:17.375Z,10.48
2022-09-28T17:06:22.045Z,10.27
2022-09-28T17:09:23.966Z,10.14
2022-09-28T17:12:28.263Z,10.14
2022-09-28T17:15:29.962Z,10.12
2022-09-28T17:18:32.219Z,10.14
2022-09-28T17:21:33.995Z,10.00
2022-09-28T17:24:35.630Z,9.87
2022-09-28T17:27:40.340Z,9.97
2022-09-28T17:30:42.074Z,9.90
2022-09-28T17:33:43.834Z,9.87
2022-09-28T17:36:45.791Z,9.72
2022-09-28T17:39:47.484Z,9.59
2022-09-28T17:42:49.396Z,9.61
2022-09-28T17:45:51.303Z,9.63
2022-09-28T17:48:53.789Z,9.64
2022-09-28T17:51:55.412Z,9.54
2022-09-28T17:54:57.042Z,9.55
2022-09-28T17:58:01.258Z,9.43
2022-09-28T18:01:02.857Z,9.38
2022-09-28T18:04:06.762Z,9.34
2022-09-28T18:07:09.150Z,9.19
2022-09-28T18:10:16.477Z,9.19
2022-09-28T18:13:18.254Z,9.11
2022-09-28T18:16:20.217Z,9.16
2022-09-28T18:19:21.882Z,9.20
2022-09-28T18:22:23.578Z,9.29
2022-09-28T18:25:25.215Z,9.28
2022-09-28T18:28:26.858Z,9.25
2022-09-28T18:31:28.541Z,9.20
2022-09-28T18:34:30.416Z,9.13
2022-09-28T18:37:36.395Z,9.04
2022-09-28T18:40:38.282Z,8.99
2022-09-28T18:43:40.484Z,9.03
2022-09-28T18:46:42.727Z,9.11
2022-09-28T18:49:46.738Z,8.90
2022-09-28T18:52:48.847Z,9.10
2022-09-28T18:55:50.546Z,9.11
2022-09-28T18:58:52.668Z,9.10
2022-09-28T19:01:54.443Z,9.00
2022-09-28T19:04:56.399Z,8.99
2022-09-28T19:07:58.120Z,9.03
2022-09-28T19:11:06.775Z,8.97
2022-09-28T19:14:11.105Z,8.84
2022-09-28T19:17:12.888Z,8.87
2022-09-28T19:20:14.593Z,8.98
2022-09-28T19:23:16.208Z,9.10
2022-09-28T19:26:21.264Z,9.29
2022-09-28T19:29:23.106Z,9.13
2022-09-28T19:32:24.769Z,9.16
2022-09-28T19:35:26.330Z,9.00
2022-09-28T19:38:29.485Z,9.04
2022-09-28T19:41:44.376Z,9.01
2022-09-28T19:44:46.447Z,9.15
2022-09-28T19:47:49.103Z,9.20
2022-09-28T19:50:59.172Z,9.12
2022-09-28T19:54:05.586Z,9.24
2022-09-28T19:57:10.514Z,9.26
2022-09-28T20:00:12.346Z,9.49
2022-09-28T20:03:14.174Z,9.47
2022-09-28T20:06:17.500Z,9.50
2022-09-28T20:09:19.850Z,9.33
2022-09-28T20:12:22.295Z,9.26
2022-09-28T20:15:24.102Z,9.17
2022-09-28T20:18:27.549Z,9.24
2022-09-28T20:21:29.877Z,9.24
2022-09-28T20:24:32.275Z,9.07
2022-09-28T20:27:34.084Z,8.95
2022-09-28T20:30:37.373Z,9.07
2022-09-28T20:33:39.493Z,8.98
2022-09-28T20:36:42.410Z,9.00
2022-09-28T20:39:45.226Z,8.95
2022-09-28T20:42:46.998Z,8.85
2022-09-28T20:45:50.569Z,8.91
2022-09-28T20:48:54.982Z,8.87
2022-09-28T20:51:56.650Z,8.89
2022-09-28T20:54:58.323Z,8.88
2022-09-28T20:58:03.219Z,8.94
2022-09-28T21:01:14.659Z,8.85
2022-09-28T21:04:16.612Z,8.90
2022-09-28T21:07:18.311Z,8.97
2022-09-28T21:10:19.955Z,8.97
2022-09-28T21:13:22.128Z,8.99
2022-09-28T21:16:24.128Z,9.05
2022-09-28T21:19:25.814Z,9.11
2022-09-28T21:22:29.068Z,9.09
2022-09-28T21:25:31.258Z,9.21
2022-09-28T21:28:33.459Z,9.23
2022-09-28T21:31:40.764Z,9.30
2022-09-28T21:34:42.529Z,9.38
2022-09-28T21:37:44.098Z,9.39
2022-09-28T21:40:45.795Z,9.41
2022-09-28T21:43:47.618Z,9.45
2022-09-28T21:46:49.334Z,9.41
2022-09-28T21:49:50.978Z,9.43
2022-09-28T21:52:54.652Z,9.51
2022-09-28T21:55:57.710Z,9.47
2022-09-28T21:59:01.263Z,9.53
2022-09-28T22:02:05.742Z,9.48
2022-09-28T22:08:50.787Z,9.35
2022-09-28T22:11:52.889Z,8.99
2022-09-28T22:14:55.214Z,8.99
2022-09-28T22:18:02.756Z,8.81
2022-09-28T22:21:38.006Z,8.91
2022-09-28T22:24:40.296Z,9.20
2022-09-28T22:27:46.302Z,9.05
2022-09-28T22:30:52.969Z,8.84
2022-09-28T22:33:55.297Z,8.97
2022-09-28T22:37:49.486Z,9.26
2022-09-28T22:40:55.113Z,8.66
2022-09-28T22:44:01.618Z,8.85
2022-09-28T22:47:08.239Z,8.69
2022-09-28T22:50:10.886Z,8.69
2022-09-28T22:53:14.330Z,8.50
2022-09-28T22:56:18.987Z,8.54
2022-09-28T22:59:21.308Z,8.46
2022-09-28T23:02:23.257Z,8.66
2022-09-28T23:05:27.532Z,8.92
2022-09-28T23:08:30.620Z,8.73
2022-09-28T23:11:35.253Z,8.28
2022-09-28T23:14:37.546Z,8.53
2022-09-28T23:17:39.671Z,8.74
2022-09-28T23:20:41.826Z,8.45
2022-09-28T23:23:45.588Z,8.44
2022-09-28T23:26:58.456Z,8.68
2022-09-28T23:30:08.003Z,8.33
2022-09-28T23:33:17.856Z,8.84
2022-09-28T23:36:20.034Z,8.67
2022-09-28T23:39:29.693Z,8.49
2022-09-28T23:42:34.792Z,8.60
2022-09-28T23:45:54.708Z,8.62
2022-09-28T23:48:59.275Z,8.82
2022-09-28T23:52:08.865Z,8.81
2022-09-28T23:55:11.025Z,8.37
2022-09-28T23:58:44.810Z,8.42
